Time;durP1;ratioP1;P1;durP2;ratioP2;P2;SDS_P1;SDS_P2;PMS_P1;PMS_P2;Temp;Humidity;BMP_temperature;BMP_pressure;BME280_temperature;BME280_humidity;BME280_pressure;Samples;Min_cycle;Max_cycle;Signal;HPM_P1;HPM_P2
2022/10/29 00:01:44;;;;;;;0.57;0.57;;;11.80;99.90;;;;;;5032654;28;20191;-74
2022/10/29 00:04:10;;;;;;;0.70;0.70;;;11.80;99.90;;;;;;5032594;28;20199;-71
2022/10/29 00:06:36;;;;;;;0.70;0.70;;;11.90;99.90;;;;;;5034057;28;20222;-71
2022/10/29 00:09:02;;;;;;;0.57;0.57;;;11.90;99.90;;;;;;5037924;28;20528;-72
2022/10/29 00:11:28;;;;;;;0.40;0.40;;;11.80;99.90;;;;;;5055950;28;20194;-72
2022/10/29 00:13:57;;;;;;;0.63;0.63;;;11.90;99.90;;;;;;5055909;28;20202;-72
2022/10/29 00:16:25;;;;;;;1.27;1.17;;;11.90;99.90;;;;;;5054913;28;20192;-72
2022/10/29 00:18:51;;;;;;;0.60;0.60;;;11.90;99.90;;;;;;5055865;28;20186;-72
2022/10/29 00:21:19;;;;;;;0.50;0.50;;;11.90;99.90;;;;;;5054432;28;20204;-72
2022/10/29 00:23:46;;;;;;;0.50;0.50;;;11.90;99.90;;;;;;5055862;28;20202;-71
2022/10/29 00:26:12;;;;;;;0.60;0.60;;;11.90;99.90;;;;;;5055689;28;20197;-71
2022/10/29 00:28:38;;;;;;;0.50;0.50;;;11.90;99.90;;;;;;5055683;28;20221;-72
2022/10/29 00:31:06;;;;;;;0.50;0.50;;;11.90;99.90;;;;;;5055730;28;20679;-72
2022/10/29 00:33:33;;;;;;;0.50;0.50;;;11.90;99.90;;;;;;5055403;28;20281;-73
2022/10/29 00:36:08;;;;;;;0.60;0.60;;;11.90;99.90;;;;;;5055226;28;20197;-73
2022/10/29 00:38:34;;;;;;;0.60;0.60;;;11.90;99.90;;;;;;5053851;28;20197;-73
2022/10/29 00:41:01;;;;;;;0.50;0.50;;;11.90;99.90;;;;;;5054844;28;20687;-72
2022/10/29 00:43:27;;;;;;;0.40;0.40;;;11.90;99.90;;;;;;5051877;28;20291;-73
2022/10/29 00:46:14;;;;;;;0.50;0.50;;;11.90;99.90;;;;;;5035327;28;20281;-73
2022/10/29 00:48:46;;;;;;;0.55;0.55;;;11.90;99.90;;;;;;5021723;28;20220;-73
2022/10/29 00:51:14;;;;;;;1.05;1.05;;;11.90;99.90;;;;;;5035211;28;20627;-74
2022/10/29 00:53:45;;;;;;;0.63;0.63;;;12.00;99.90;;;;;;5035281;28;20587;-73
2022/10/29 00:56:11;;;;;;;0.60;0.60;;;12.00;99.90;;;;;;5017353;28;20194;-73
2022/10/29 00:58:38;;;;;;;0.82;0.82;;;12.00;99.90;;;;;;5035098;28;20237;-73
2022/10/29 01:01:03;;;;;;;0.70;0.70;;;12.00;99.90;;;;;;5035401;28;20762;-73
2022/10/29 01:03:29;;;;;;;0.88;0.88;;;12.10;99.90;;;;;;5035052;28;20273;-72
2022/10/29 01:05:55;;;;;;;0.70;0.70;;;12.10;99.90;;;;;;5024245;28;20220;-74
2022/10/29 01:08:21;;;;;;;0.60;0.60;;;12.10;99.90;;;;;;5036919;28;20319;-75
2022/10/29 01:11:06;;;;;;;0.70;0.70;;;12.10;99.90;;;;;;5054945;28;20200;-74
2022/10/29 01:13:50;;;;;;;0.57;0.57;;;12.10;99.90;;;;;;5062075;28;20213;-75
2022/10/29 01:16:42;;;;;;;0.77;0.77;;;12.10;99.90;;;;;;5056703;28;20200;-75
2022/10/29 01:19:37;;;;;;;0.40;0.40;;;12.10;99.90;;;;;;5011042;28;20208;-74
2022/10/29 01:22:14;;;;;;;0.70;0.70;;;12.10;99.90;;;;;;5056946;28;20567;-74
2022/10/29 01:25:04;;;;;;;0.63;0.63;;;12.10;99.90;;;;;;5067140;28;20201;-74
2022/10/29 01:28:04;;;;;;;1.50;1.35;;;12.10;99.90;;;;;;5054595;28;20198;-73
2022/10/29 01:31:02;;;;;;;0.75;0.75;;;12.20;99.90;;;;;;5048899;28;20205;-74
2022/10/29 01:33:49;;;;;;;0.60;0.60;;;12.20;99.90;;;;;;5054347;28;20563;-74
2022/10/29 01:36:19;;;;;;;0.88;0.88;;;12.20;99.90;;;;;;5054584;28;20250;-73
2022/10/29 01:39:15;;;;;;;0.50;0.50;;;12.20;99.90;;;;;;5054395;28;20207;-74
2022/10/29 01:42:04;;;;;;;0.50;0.50;;;12.20;99.90;;;;;;5035962;28;20240;-71
2022/10/29 01:44:49;;;;;;;0.60;0.60;;;12.20;99.90;;;;;;5054182;28;20193;-73
2022/10/29 01:47:18;;;;;;;1.02;1.00;;;12.30;99.90;;;;;;5035996;28;20257;-74
2022/10/29 01:49:50;;;;;;;1.25;1.10;;;12.30;99.90;;;;;;5054191;28;20611;-73
2022/10/29 01:52:18;;;;;;;1.75;1.63;;;12.30;99.90;;;;;;5054097;28;20193;-73
2022/10/29 01:54:45;;;;;;;0.85;0.85;;;12.30;99.90;;;;;;5036100;28;20220;-74
2022/10/29 01:57:28;;;;;;;2.08;0.90;;;12.30;99.90;;;;;;5053986;28;20197;-74
2022/10/29 02:00:09;;;;;;;0.40;0.40;;;12.40;99.90;;;;;;5053784;28;20248;-73
2022/10/29 02:03:26;;;;;;;0.82;0.82;;;12.40;99.90;;;;;;5049197;28;20684;-73
2022/10/29 02:06:19;;;;;;;0.50;0.50;;;12.40;99.90;;;;;;4992854;28;20747;-74
2022/10/29 02:09:04;;;;;;;0.65;0.65;;;12.50;99.90;;;;;;5053787;28;20288;-73
2022/10/29 02:11:50;;;;;;;0.70;0.70;;;12.60;99.90;;;;;;5033638;28;20657;-73
2022/10/29 02:14:46;;;;;;;0.60;0.60;;;12.60;99.90;;;;;;5033069;28;20214;-73
2022/10/29 02:17:11;;;;;;;1.23;1.13;;;12.60;99.90;;;;;;5031732;28;20198;-73
2022/10/29 02:19:37;;;;;;;0.90;0.90;;;12.60;99.90;;;;;;5044837;28;20193;-73
2022/10/29 02:22:03;;;;;;;0.57;0.57;;;12.60;99.90;;;;;;5053723;28;20193;-74
2022/10/29 02:24:29;;;;;;;0.88;0.88;;;12.70;99.90;;;;;;5047749;28;20201;-73
2022/10/29 02:26:54;;;;;;;0.60;0.60;;;12.60;99.90;;;;;;5033648;28;20243;-73
2022/10/29 02:29:20;;;;;;;0.52;0.52;;;12.70;99.90;;;;;;5015156;28;20202;-74
2022/10/29 02:31:45;;;;;;;0.60;0.60;;;12.70;99.90;;;;;;5042111;28;20567;-73
2022/10/29 02:34:11;;;;;;;0.50;0.50;;;12.70;99.90;;;;;;5055478;28;20203;-73
2022/10/29 02:36:37;;;;;;;0.70;0.70;;;12.70;99.90;;;;;;5038332;28;20202;-73
2022/10/29 02:39:03;;;;;;;0.70;0.70;;;12.60;99.90;;;;;;5033417;28;20194;-74
2022/10/29 02:41:28;;;;;;;2.15;0.85;;;12.60;99.90;;;;;;5033411;28;20679;-74
2022/10/29 02:43:54;;;;;;;0.75;0.73;;;12.60;99.90;;;;;;5015786;28;20559;-73
2022/10/29 02:46:22;;;;;;;0.63;0.63;;;12.60;99.90;;;;;;5033051;28;20646;-74
2022/10/29 02:48:48;;;;;;;0.50;0.50;;;12.60;99.90;;;;;;5033516;28;20190;-73
2022/10/29 02:51:15;;;;;;;0.68;0.68;;;12.60;99.90;;;;;;5033068;28;20200;-73
2022/10/29 02:53:41;;;;;;;0.50;0.50;;;12.60;99.90;;;;;;5032808;28;20247;-73
2022/10/29 02:56:07;;;;;;;0.55;0.55;;;12.60;99.90;;;;;;5032825;28;20189;-73
2022/10/29 02:58:33;;;;;;;0.70;0.70;;;12.60;99.90;;;;;;5041860;28;20202;-77
2022/10/29 03:00:59;;;;;;;0.50;0.50;;;12.60;99.90;;;;;;5027825;28;20321;-74
2022/10/29 03:03:25;;;;;;;0.50;0.50;;;12.60;99.90;;;;;;5051960;28;20189;-78
2022/10/29 03:05:51;;;;;;;0.98;0.80;;;12.50;99.90;;;;;;5053111;28;20334;-74
2022/10/29 03:08:17;;;;;;;0.65;0.60;;;12.50;99.90;;;;;;5052986;28;20703;-74
2022/10/29 03:10:43;;;;;;;0.50;0.50;;;12.40;99.90;;;;;;5052962;28;20295;-74
2022/10/29 03:13:08;;;;;;;0.60;0.60;;;12.30;99.90;;;;;;5052985;28;20198;-74
2022/10/29 03:15:34;;;;;;;0.40;0.40;;;12.30;99.90;;;;;;5052791;28;20547;-74
2022/10/29 03:18:00;;;;;;;0.50;0.50;;;12.20;99.90;;;;;;5052740;28;20727;-74
2022/10/29 03:20:26;;;;;;;0.50;0.50;;;12.10;99.90;;;;;;5034661;28;20301;-74
2022/10/29 03:22:52;;;;;;;0.40;0.40;;;12.10;99.90;;;;;;5052941;28;20668;-73
2022/10/29 03:25:17;;;;;;;0.50;0.50;;;12.10;99.90;;;;;;5040305;28;20209;-73
2022/10/29 03:27:44;;;;;;;0.50;0.50;;;12.10;99.90;;;;;;5032884;28;20194;-74
2022/10/29 03:30:15;;;;;;;0.50;0.50;;;12.00;99.90;;;;;;5033007;28;20204;-73
2022/10/29 03:32:41;;;;;;;0.50;0.50;;;11.90;99.90;;;;;;5043817;28;20660;-73
2022/10/29 03:35:08;;;;;;;0.50;0.50;;;11.90;99.90;;;;;;5034814;28;20541;-73
2022/10/29 03:37:34;;;;;;;0.50;0.50;;;11.80;99.90;;;;;;5052007;28;20197;-73
2022/10/29 03:40:00;;;;;;;0.68;0.68;;;11.80;99.90;;;;;;5036913;28;20267;-72
2022/10/29 03:42:25;;;;;;;0.40;0.40;;;11.80;99.90;;;;;;5056263;28;20315;-74
2022/10/29 03:44:51;;;;;;;1.13;1.02;;;11.70;99.90;;;;;;5056560;28;20649;-74
2022/10/29 03:47:17;;;;;;;0.50;0.50;;;11.70;99.90;;;;;;5056361;28;20229;-74
2022/10/29 03:49:42;;;;;;;0.43;0.43;;;11.70;99.90;;;;;;5056338;28;20276;-74
2022/10/29 03:52:08;;;;;;;0.70;0.70;;;11.60;99.90;;;;;;5056415;28;20272;-74
2022/10/29 03:54:34;;;;;;;0.70;0.70;;;11.60;99.90;;;;;;5056269;28;20200;-74
2022/10/29 03:57:00;;;;;;;0.63;0.63;;;11.50;99.90;;;;;;5056300;28;20595;-73
2022/10/29 03:59:25;;;;;;;0.80;0.80;;;11.60;99.90;;;;;;5038231;28;20205;-73
2022/10/29 04:01:51;;;;;;;0.43;0.43;;;11.50;99.90;;;;;;5056090;28;20277;-73
2022/10/29 04:04:16;;;;;;;1.50;1.00;;;11.50;99.90;;;;;;5056177;28;20221;-73
2022/10/29 04:06:42;;;;;;;0.60;0.60;;;11.40;99.90;;;;;;5056057;28;20196;-74
2022/10/29 04:09:08;;;;;;;0.57;0.57;;;11.40;99.90;;;;;;5054827;28;20193;-74
2022/10/29 04:11:33;;;;;;;0.75;0.70;;;11.40;99.90;;;;;;5054657;28;20202;-73
2022/10/29 04:13:59;;;;;;;0.60;0.60;;;11.30;99.90;;;;;;5055504;28;20197;-73
2022/10/29 04:16:25;;;;;;;1.65;1.10;;;11.30;99.90;;;;;;5055673;28;20196;-73
2022/10/29 04:18:51;;;;;;;0.50;0.50;;;11.20;99.90;;;;;;5054614;28;20189;-73
2022/10/29 04:21:17;;;;;;;1.00;1.00;;;11.20;99.90;;;;;;5055777;28;20202;-73
2022/10/29 04:23:43;;;;;;;0.55;0.55;;;11.20;99.90;;;;;;5054415;28;20200;-73
2022/10/29 04:26:09;;;;;;;0.50;0.50;;;11.10;99.90;;;;;;5055677;28;20668;-72
2022/10/29 04:28:35;;;;;;;0.50;0.50;;;11.10;99.90;;;;;;5051221;28;20201;-74
2022/10/29 04:31:09;;;;;;;1.08;0.65;;;11.00;99.90;;;;;;5035768;28;20202;-73
2022/10/29 04:33:35;;;;;;;0.50;0.50;;;10.90;99.90;;;;;;5035529;28;20197;-74
2022/10/29 04:36:01;;;;;;;0.88;0.88;;;10.90;99.90;;;;;;5018025;28;20251;-74
2022/10/29 04:38:26;;;;;;;0.60;0.60;;;10.80;99.90;;;;;;5017724;28;20276;-72
2022/10/29 04:40:52;;;;;;;0.50;0.50;;;10.80;99.90;;;;;;5035466;28;20210;-72
2022/10/29 04:43:18;;;;;;;0.50;0.50;;;10.80;99.90;;;;;;5034267;28;20259;-73
2022/10/29 04:45:50;;;;;;;0.50;0.50;;;10.80;99.90;;;;;;5035230;28;20209;-74
2022/10/29 04:48:16;;;;;;;0.47;0.47;;;10.70;99.90;;;;;;5035587;28;20673;-74
2022/10/29 04:50:41;;;;;;;0.80;0.80;;;10.80;99.90;;;;;;5039818;28;20212;-73
2022/10/29 04:53:07;;;;;;;0.40;0.40;;;10.70;99.90;;;;;;5055364;28;20224;-74
2022/10/29 04:55:37;;;;;;;0.60;0.60;;;10.60;99.90;;;;;;5036805;28;20558;-74
2022/10/29 04:58:06;;;;;;;0.60;0.60;;;10.60;99.90;;;;;;5036546;28;20193;-74
2022/10/29 05:00:32;;;;;;;0.50;0.50;;;10.60;99.90;;;;;;5054778;28;20271;-75
2022/10/29 05:02:58;;;;;;;0.50;0.50;;;10.60;99.90;;;;;;5054977;28;20628;-74
2022/10/29 05:05:24;;;;;;;0.80;0.80;;;10.50;99.90;;;;;;5054712;28;20186;-73
2022/10/29 05:07:59;;;;;;;0.47;0.47;;;10.50;99.90;;;;;;5054980;28;20193;-74
2022/10/29 05:10:30;;;;;;;0.50;0.50;;;10.50;99.90;;;;;;5054831;28;20217;-73
2022/10/29 05:13:04;;;;;;;1.63;0.75;;;10.40;99.90;;;;;;5054873;28;20722;-73
2022/10/29 05:15:30;;;;;;;0.50;0.50;;;10.40;99.90;;;;;;5037017;28;20653;-74
2022/10/29 05:17:56;;;;;;;0.35;0.35;;;10.40;99.90;;;;;;5036899;28;20197;-72
2022/10/29 05:20:23;;;;;;;0.50;0.50;;;10.40;99.90;;;;;;5054458;28;20684;-73
2022/10/29 05:22:48;;;;;;;1.10;0.60;;;10.40;99.90;;;;;;5054786;28;20219;-73
2022/10/29 05:25:15;;;;;;;0.57;0.57;;;10.30;99.90;;;;;;5050133;28;20202;-74
2022/10/29 05:27:40;;;;;;;0.60;0.60;;;10.30;99.90;;;;;;5054407;28;20220;-75
2022/10/29 05:30:07;;;;;;;0.50;0.50;;;10.30;99.90;;;;;;5054709;28;20190;-73
2022/10/29 05:32:32;;;;;;;0.70;0.70;;;10.30;99.90;;;;;;5036493;28;20236;-74
2022/10/29 05:34:58;;;;;;;0.60;0.60;;;10.20;99.90;;;;;;5036585;28;20229;-73
2022/10/29 05:37:25;;;;;;;5.07;1.33;;;10.10;99.90;;;;;;5054201;28;20587;-74
2022/10/29 05:39:50;;;;;;;0.50;0.50;;;10.10;99.90;;;;;;5036428;28;20224;-74
2022/10/29 05:42:16;;;;;;;0.60;0.60;;;10.00;99.90;;;;;;5053936;28;20193;-72
2022/10/29 05:44:42;;;;;;;0.60;0.60;;;10.00;99.90;;;;;;5053793;28;20207;-72
2022/10/29 05:47:08;;;;;;;0.52;0.52;;;10.00;99.90;;;;;;5036190;28;20214;-72
2022/10/29 05:49:33;;;;;;;0.50;0.50;;;10.00;99.90;;;;;;5054104;28;20198;-74
2022/10/29 05:51:59;;;;;;;0.60;0.60;;;10.00;99.90;;;;;;5054135;28;20280;-74
2022/10/29 05:54:24;;;;;;;0.70;0.70;;;9.90;99.90;;;;;;5053911;28;20304;-72
2022/10/29 05:56:50;;;;;;;2.70;1.20;;;9.90;99.90;;;;;;5054108;28;20244;-73
2022/10/29 05:59:16;;;;;;;0.60;0.60;;;9.90;99.90;;;;;;5053826;28;20215;-73
2022/10/29 06:01:41;;;;;;;0.50;0.50;;;9.90;99.90;;;;;;5053834;28;20190;-74
2022/10/29 06:04:07;;;;;;;0.57;0.57;;;9.80;99.90;;;;;;5052823;28;20185;-73
2022/10/29 06:06:33;;;;;;;0.52;0.52;;;9.70;99.90;;;;;;5053841;28;20193;-73
2022/10/29 06:08:59;;;;;;;0.50;0.50;;;9.70;99.90;;;;;;5053914;28;20272;-73
2022/10/29 06:11:24;;;;;;;4.38;1.83;;;9.70;99.90;;;;;;5053726;28;20656;-74
2022/10/29 06:13:54;;;;;;;0.50;0.50;;;9.60;99.90;;;;;;5053808;28;20247;-74
2022/10/29 06:16:20;;;;;;;0.50;0.50;;;9.60;99.90;;;;;;5052246;28;20269;-74
2022/10/29 06:18:46;;;;;;;0.50;0.50;;;9.60;99.90;;;;;;5053654;28;20388;-74
2022/10/29 06:21:12;;;;;;;0.82;0.82;;;9.60;99.90;;;;;;5052910;28;20209;-74
2022/10/29 06:23:37;;;;;;;0.50;0.50;;;9.50;99.90;;;;;;5053076;28;20193;-74
2022/10/29 06:26:03;;;;;;;0.57;0.57;;;9.50;99.90;;;;;;5034817;28;20195;-75
2022/10/29 06:28:29;;;;;;;0.47;0.47;;;9.40;99.90;;;;;;5033567;28;20190;-74
2022/10/29 06:30:54;;;;;;;2.78;1.52;;;9.40;99.90;;;;;;5015809;28;20546;-74
2022/10/29 06:33:22;;;;;;;0.50;0.50;;;9.50;99.90;;;;;;5033370;28;20233;-73
2022/10/29 06:35:47;;;;;;;17.52;0.95;;;9.40;99.90;;;;;;5015853;28;20194;-73
2022/10/29 06:38:14;;;;;;;0.40;0.40;;;9.40;99.90;;;;;;5033467;28;20277;-73
2022/10/29 06:40:41;;;;;;;0.30;0.30;;;9.50;99.90;;;;;;5033184;28;20675;-73
2022/10/29 06:43:10;;;;;;;0.40;0.40;;;9.40;99.90;;;;;;5020372;28;20204;-74
2022/10/29 06:45:36;;;;;;;0.40;0.40;;;9.50;99.90;;;;;;5035248;28;20200;-73
2022/10/29 06:48:03;;;;;;;1.48;0.95;;;9.40;99.90;;;;;;5053070;28;20225;-73
2022/10/29 06:50:29;;;;;;;0.63;0.63;;;9.40;99.90;;;;;;5053011;28;20197;-73
2022/10/29 06:53:03;;;;;;;0.38;0.38;;;9.50;99.90;;;;;;5053155;28;20207;-73
2022/10/29 06:55:29;;;;;;;0.50;0.50;;;9.50;99.90;;;;;;5053044;28;20664;-73
2022/10/29 06:57:59;;;;;;;0.50;0.50;;;9.50;99.90;;;;;;5055783;28;20208;-74
2022/10/29 07:00:26;;;;;;;0.55;0.55;;;9.50;99.90;;;;;;5072971;28;20200;-73
2022/10/29 07:02:52;;;;;;;0.60;0.60;;;9.50;99.90;;;;;;5061353;28;20739;-74
2022/10/29 07:05:17;;;;;;;0.95;0.63;;;9.50;99.90;;;;;;5052519;28;20263;-73
2022/10/29 07:07:43;;;;;;;0.50;0.50;;;9.50;99.90;;;;;;5035039;28;20279;-74
2022/10/29 07:10:09;;;;;;;0.50;0.50;;;9.60;99.90;;;;;;5035167;28;20204;-74
2022/10/29 07:12:42;;;;;;;0.60;0.60;;;9.60;99.90;;;;;;5035187;28;20201;-75
2022/10/29 07:15:09;;;;;;;0.50;0.50;;;9.60;99.90;;;;;;5055581;28;20197;-74
2022/10/29 07:17:34;;;;;;;0.60;0.60;;;9.60;99.90;;;;;;5032695;28;20719;-73
2022/10/29 07:20:00;;;;;;;0.50;0.50;;;9.60;99.90;;;;;;5037005;28;20214;-74
2022/10/29 07:22:26;;;;;;;0.50;0.50;;;9.60;99.90;;;;;;5036806;28;20190;-74
2022/10/29 07:24:52;;;;;;;1.13;1.02;;;9.60;99.90;;;;;;5024626;28;20191;-73
2022/10/29 07:27:17;;;;;;;0.60;0.60;;;9.50;99.90;;;;;;5019335;28;20211;-74
2022/10/29 07:29:43;;;;;;;0.40;0.40;;;9.50;99.90;;;;;;5036753;28;20202;-74
2022/10/29 07:32:08;;;;;;;0.55;0.55;;;9.50;99.90;;;;;;5036790;28;20202;-74
2022/10/29 07:34:34;;;;;;;0.70;0.70;;;9.50;99.90;;;;;;5036795;28;20198;-74
2022/10/29 07:37:00;;;;;;;0.40;0.40;;;9.60;99.90;;;;;;5037010;28;20198;-74
2022/10/29 07:39:25;;;;;;;0.50;0.50;;;9.60;99.90;;;;;;5023894;28;20193;-74
2022/10/29 07:41:51;;;;;;;0.70;0.70;;;9.60;99.90;;;;;;5056534;28;20754;-74
2022/10/29 07:44:17;;;;;;;0.50;0.50;;;9.60;99.90;;;;;;5056390;28;20324;-75
2022/10/29 07:46:42;;;;;;;0.55;0.55;;;9.70;99.90;;;;;;5056037;28;20291;-74
2022/10/29 07:49:08;;;;;;;0.50;0.50;;;9.70;99.90;;;;;;5038705;28;20194;-74
2022/10/29 07:51:56;;;;;;;0.50;0.50;;;9.70;99.90;;;;;;5057754;28;20185;-74
2022/10/29 07:54:22;;;;;;;0.60;0.60;;;9.80;99.90;;;;;;5044697;28;20283;-74
2022/10/29 07:56:51;;;;;;;0.50;0.50;;;9.80;99.90;;;;;;5058485;28;20284;-74
2022/10/29 07:59:18;;;;;;;0.50;0.50;;;9.80;99.90;;;;;;5076296;28;20219;-75
2022/10/29 08:01:44;;;;;;;4.13;1.23;;;9.90;99.90;;;;;;5058174;28;20193;-74
2022/10/29 08:04:10;;;;;;;0.50;0.50;;;9.90;99.90;;;;;;5076283;28;20196;-74
2022/10/29 08:06:36;;;;;;;0.40;0.40;;;9.90;99.90;;;;;;5058057;28;20200;-74
2022/10/29 08:09:02;;;;;;;0.50;0.50;;;9.90;99.90;;;;;;5076211;28;20268;-74
2022/10/29 08:11:29;;;;;;;0.45;0.45;;;9.90;99.90;;;;;;5076049;28;20193;-74
2022/10/29 08:13:55;;;;;;;0.43;0.43;;;9.90;99.90;;;;;;5069190;28;20205;-74
2022/10/29 08:16:20;;;;;;;0.40;0.40;;;9.90;99.90;;;;;;5055655;28;20194;-75
2022/10/29 08:18:46;;;;;;;0.68;0.68;;;10.00;99.90;;;;;;5056015;28;20607;-75
2022/10/29 08:21:12;;;;;;;0.50;0.50;;;10.10;99.90;;;;;;5055852;28;20226;-74
2022/10/29 08:23:37;;;;;;;0.40;0.40;;;10.10;99.90;;;;;;5037516;28;20205;-74
2022/10/29 08:26:20;;;;;;;0.50;0.50;;;10.20;99.90;;;;;;5036097;28;20199;-73
2022/10/29 08:28:46;;;;;;;0.45;0.45;;;10.20;99.90;;;;;;5018172;28;20200;-74
2022/10/29 08:31:11;;;;;;;3.15;1.50;;;10.30;99.90;;;;;;5035687;28;20284;-73
2022/10/29 08:33:37;;;;;;;0.50;0.50;;;10.30;99.90;;;;;;5017782;28;20637;-74
2022/10/29 08:36:03;;;;;;;0.60;0.60;;;10.40;99.90;;;;;;5043330;28;20197;-74
2022/10/29 08:38:29;;;;;;;0.43;0.43;;;10.40;99.90;;;;;;5037495;28;20288;-74
2022/10/29 08:41:06;;;;;;;0.60;0.60;;;10.40;99.90;;;;;;5055628;28;20201;-74
2022/10/29 08:43:50;;;;;;;0.60;0.60;;;10.50;99.90;;;;;;5037418;28;20200;-74
2022/10/29 08:46:58;;;;;;;0.50;0.50;;;10.50;99.90;;;;;;5055255;28;20213;-74
2022/10/29 08:49:33;;;;;;;0.50;0.50;;;10.60;99.90;;;;;;4955064;29;20224;-74
2022/10/29 08:52:19;;;;;;;0.40;0.40;;;10.60;99.90;;;;;;4955075;28;20204;-75
2022/10/29 08:54:49;;;;;;;0.82;0.82;;;10.60;99.90;;;;;;4946309;28;20208;-74
2022/10/29 08:57:18;;;;;;;0.50;0.50;;;10.70;99.90;;;;;;4958274;28;20204;-73
2022/10/29 09:00:07;;;;;;;0.50;0.50;;;10.70;99.90;;;;;;4958060;28;20721;-74
2022/10/29 09:02:32;;;;;;;0.63;0.63;;;10.80;99.90;;;;;;4973950;28;20270;-74
2022/10/29 09:05:00;;;;;;;0.50;0.50;;;10.80;99.90;;;;;;4973855;28;20204;-74
2022/10/29 09:07:28;;;;;;;0.50;0.50;;;10.90;99.90;;;;;;4957791;28;20228;-75
2022/10/29 09:10:15;;;;;;;0.40;0.40;;;10.90;99.90;;;;;;4968952;28;20624;-74
2022/10/29 09:12:51;;;;;;;14.63;2.25;;;11.00;99.90;;;;;;4954887;29;20739;-75
2022/10/29 09:15:53;;;;;;;0.50;0.50;;;11.00;99.90;;;;;;4939305;29;20276;-75
2022/10/29 09:19:17;;;;;;;0.50;0.50;;;11.00;99.90;;;;;;4938596;29;20232;-75
2022/10/29 09:21:54;;;;;;;4.43;1.02;;;11.10;99.90;;;;;;4954776;29;20755;-74
2022/10/29 09:24:38;;;;;;;1.75;0.82;;;11.10;99.90;;;;;;4974414;28;20218;-74
2022/10/29 09:27:21;;;;;;;0.60;0.60;;;11.10;99.90;;;;;;4993832;28;20207;-74
2022/10/29 09:30:12;;;;;;;0.50;0.50;;;11.10;99.90;;;;;;4992706;28;20249;-74
2022/10/29 09:32:42;;;;;;;3.95;1.00;;;11.20;99.90;;;;;;4992873;28;20318;-75
2022/10/29 09:35:14;;;;;;;0.82;0.65;;;11.20;99.90;;;;;;4993846;28;20219;-74
2022/10/29 09:37:45;;;;;;;7.80;0.90;;;11.20;99.90;;;;;;4992973;28;20221;-76
2022/10/29 09:40:38;;;;;;;0.50;0.50;;;11.30;99.90;;;;;;4993250;28;20219;-73
2022/10/29 09:43:25;;;;;;;0.40;0.40;;;11.40;99.90;;;;;;4976231;28;20294;-74
2022/10/29 09:45:52;;;;;;;0.50;0.50;;;11.50;99.90;;;;;;4993634;28;20588;-72
2022/10/29 09:49:02;;;;;;;0.50;0.50;;;11.50;99.90;;;;;;4977153;28;20210;-75
2022/10/29 09:51:34;;;;;;;0.50;0.50;;;11.50;99.90;;;;;;4977558;28;20212;-75
2022/10/29 09:54:00;;;;;;;0.50;0.50;;;11.50;99.90;;;;;;4993705;28;20238;-75
2022/10/29 09:56:26;;;;;;;0.50;0.50;;;11.50;99.90;;;;;;5045801;28;20210;-75
2022/10/29 09:59:16;;;;;;;1.65;1.13;;;11.40;99.90;;;;;;5053313;28;20189;-74
2022/10/29 10:01:41;;;;;;;0.50;0.50;;;11.40;99.90;;;;;;5051722;28;20222;-73
2022/10/29 10:04:20;;;;;;;2.25;1.35;;;11.30;99.90;;;;;;5053877;28;20247;-73
2022/10/29 10:07:15;;;;;;;0.52;0.52;;;11.30;99.90;;;;;;5053654;28;20224;-74
2022/10/29 10:09:53;;;;;;;0.50;0.50;;;11.10;99.90;;;;;;5053671;28;20193;-75
2022/10/29 10:12:21;;;;;;;0.50;0.50;;;11.00;99.90;;;;;;5053767;28;20193;-75
2022/10/29 10:14:47;;;;;;;0.60;0.60;;;10.90;99.90;;;;;;5035259;28;20193;-74
2022/10/29 10:17:13;;;;;;;0.50;0.50;;;10.90;99.90;;;;;;5035580;28;20211;-72
2022/10/29 10:19:47;;;;;;;0.73;0.73;;;11.00;99.90;;;;;;5035704;28;20220;-75
2022/10/29 10:22:23;;;;;;;0.65;0.60;;;11.30;99.90;;;;;;5053628;28;20185;-75
2022/10/29 10:24:49;;;;;;;0.60;0.60;;;11.50;99.90;;;;;;5045275;28;20217;-74
2022/10/29 10:27:17;;;;;;;0.40;0.40;;;11.80;99.90;;;;;;5033687;28;20189;-74
2022/10/29 10:30:16;;;;;;;0.50;0.50;;;12.20;99.90;;;;;;5051552;28;20211;-74
2022/10/29 10:32:42;;;;;;;0.40;0.40;;;12.60;99.90;;;;;;4999309;28;20201;-74
2022/10/29 10:35:29;;;;;;;0.60;0.60;;;12.90;99.90;;;;;;5053504;28;20628;-74
2022/10/29 10:37:55;;;;;;;0.60;0.60;;;13.20;99.90;;;;;;5035541;28;20285;-73
2022/10/29 10:40:23;;;;;;;0.47;0.47;;;13.40;99.90;;;;;;5053112;28;20209;-76
2022/10/29 10:42:51;;;;;;;0.50;0.50;;;13.50;99.90;;;;;;5053545;28;20185;-75
2022/10/29 10:45:25;;;;;;;0.40;0.40;;;13.70;99.90;;;;;;5053284;28;20189;-73
2022/10/29 10:47:57;;;;;;;0.30;0.30;;;14.00;99.90;;;;;;5035285;28;20229;-73
2022/10/29 10:50:32;;;;;;;0.40;0.40;;;14.20;99.90;;;;;;5054110;28;20687;-75
2022/10/29 10:53:22;;;;;;;0.40;0.40;;;14.40;99.90;;;;;;5053395;28;20675;-74
2022/10/29 10:55:58;;;;;;;1.17;0.88;;;14.40;99.90;;;;;;5046947;28;20264;-75
2022/10/29 10:58:43;;;;;;;1.15;1.05;;;14.50;99.90;;;;;;5036365;28;20201;-73
2022/10/29 11:01:40;;;;;;;9.07;2.20;;;14.60;99.90;;;;;;5036731;28;20712;-75
2022/10/29 11:04:44;;;;;;;0.45;0.45;;;14.60;99.90;;;;;;5035756;28;20727;-75
2022/10/29 11:07:13;;;;;;;0.40;0.40;;;14.70;99.90;;;;;;5015485;28;20202;-74
2022/10/29 11:09:44;;;;;;;0.50;0.50;;;14.70;99.90;;;;;;5015349;28;20210;-75
2022/10/29 11:12:31;;;;;;;0.40;0.40;;;14.60;99.90;;;;;;5033253;28;20734;-75
2022/10/29 11:15:26;;;;;;;0.75;0.75;;;14.80;99.90;;;;;;5015373;28;20658;-75
2022/10/29 11:18:02;;;;;;;1.05;1.00;;;15.00;99.90;;;;;;4986809;28;20206;-74
2022/10/29 11:20:35;;;;;;;0.40;0.40;;;15.10;99.90;;;;;;5032791;28;20217;-75
2022/10/29 11:23:31;;;;;;;0.40;0.40;;;15.20;99.90;;;;;;5052125;28;20219;-74
2022/10/29 11:26:13;;;;;;;0.70;0.70;;;15.20;99.90;;;;;;5053035;28;20255;-74
2022/10/29 11:28:48;;;;;;;0.35;0.35;;;15.20;99.90;;;;;;5034833;28;20201;-75
2022/10/29 11:31:32;;;;;;;0.40;0.40;;;15.10;99.90;;;;;;5034987;28;20215;-75
2022/10/29 11:34:03;;;;;;;0.40;0.40;;;15.00;99.90;;;;;;5052917;28;20193;-75
2022/10/29 11:36:41;;;;;;;0.50;0.50;;;15.00;99.90;;;;;;5052797;28;20190;-73
2022/10/29 11:39:12;;;;;;;1.27;0.52;;;15.00;99.90;;;;;;5035071;28;20202;-74
2022/10/29 11:41:45;;;;;;;0.73;0.73;;;15.00;99.90;;;;;;5034720;28;20552;-74
2022/10/29 11:44:13;;;;;;;0.50;0.50;;;15.00;99.90;;;;;;5034824;28;20668;-74
2022/10/29 11:46:54;;;;;;;0.45;0.45;;;15.00;99.90;;;;;;5034541;28;20229;-75
2022/10/29 11:49:57;;;;;;;3.70;1.45;;;14.80;99.90;;;;;;5052559;28;20213;-75
2022/10/29 11:52:45;;;;;;;1.27;1.17;;;14.70;99.90;;;;;;5052528;28;20209;-75
2022/10/29 11:55:43;;;;;;;0.50;0.50;;;14.60;99.90;;;;;;5052423;28;20206;-75
2022/10/29 11:58:51;;;;;;;0.40;0.40;;;14.50;99.90;;;;;;5052596;28;20200;-75
2022/10/29 12:01:37;;;;;;;0.50;0.50;;;14.40;99.90;;;;;;5034935;28;20245;-73
2022/10/29 12:04:22;;;;;;;0.98;0.88;;;14.30;99.90;;;;;;5018473;28;20262;-75
2022/10/29 12:07:09;;;;;;;2.97;0.75;;;14.20;99.90;;;;;;5018523;28;20201;-75
2022/10/29 12:09:50;;;;;;;0.40;0.40;;;14.20;99.90;;;;;;5036060;28;20259;-74
2022/10/29 12:12:24;;;;;;;0.40;0.40;;;14.30;99.90;;;;;;5018871;28;20270;-76
2022/10/29 12:15:21;;;;;;;0.40;0.40;;;14.30;99.90;;;;;;5036082;28;20186;-73
2022/10/29 12:17:58;;;;;;;0.40;0.40;;;14.40;99.90;;;;;;5018276;28;20673;-73
2022/10/29 12:20:43;;;;;;;0.55;0.55;;;14.60;99.90;;;;;;5038750;28;20200;-74
2022/10/29 12:23:37;;;;;;;0.68;0.68;;;14.80;99.90;;;;;;5055946;28;20193;-74
2022/10/29 12:26:28;;;;;;;0.40;0.40;;;14.80;99.90;;;;;;5034483;28;20241;-75
2022/10/29 12:29:23;;;;;;;0.40;0.40;;;14.60;99.90;;;;;;5028873;28;20681;-75
2022/10/29 12:32:03;;;;;;;0.40;0.40;;;14.50;99.90;;;;;;5035711;28;20193;-75
2022/10/29 12:34:39;;;;;;;1.02;0.75;;;14.40;99.90;;;;;;5035745;28;20224;-75
2022/10/29 12:37:07;;;;;;;0.40;0.40;;;14.40;99.90;;;;;;5035603;28;20649;-75
2022/10/29 12:39:43;;;;;;;1.65;0.70;;;14.50;99.90;;;;;;5022775;28;20664;-74
2022/10/29 12:42:22;;;;;;;0.40;0.40;;;14.40;99.90;;;;;;5037775;28;20196;-74
2022/10/29 12:45:07;;;;;;;0.40;0.40;;;14.30;99.90;;;;;;5037584;28;20296;-74
2022/10/29 12:47:46;;;;;;;0.45;0.45;;;14.00;99.90;;;;;;5054229;28;20746;-74
2022/10/29 12:50:43;;;;;;;0.70;0.70;;;13.90;99.90;;;;;;5037066;28;20208;-75
2022/10/29 12:53:40;;;;;;;0.50;0.50;;;13.80;99.90;;;;;;5054691;28;20193;-74
2022/10/29 12:56:07;;;;;;;0.40;0.40;;;13.60;99.90;;;;;;5037532;28;20221;-75
2022/10/29 12:58:48;;;;;;;0.45;0.45;;;13.50;99.90;;;;;;5035275;28;20252;-74
2022/10/29 13:01:26;;;;;;;0.43;0.43;;;13.50;99.90;;;;;;5017492;28;20210;-74
2022/10/29 13:03:55;;;;;;;3.53;0.85;;;13.50;99.90;;;;;;5017513;28;20194;-74
2022/10/29 13:06:41;;;;;;;0.40;0.40;;;13.50;99.90;;;;;;5034994;28;20190;-74
2022/10/29 13:09:16;;;;;;;0.47;0.47;;;13.40;99.90;;;;;;5017162;28;20621;-73
2022/10/29 13:11:54;;;;;;;1.27;0.68;;;13.40;99.90;;;;;;5034100;28;20260;-75
2022/10/29 13:14:25;;;;;;;0.50;0.50;;;13.40;99.90;;;;;;5034611;28;20213;-73
2022/10/29 13:16:52;;;;;;;0.50;0.50;;;13.40;99.90;;;;;;5021731;28;20201;-72